sensor_id;sensor_type;location;lat;lon;timestamp;pressure;altitude;pressure_sealevel;temperature;humidity
74441;BME280;62870;54.692;25.284;2022-10-16T00:03:51;1030.3;;;14;66.1
74441;BME280;62870;54.692;25.284;2022-10-16T00:09:21;1030.3;;;14;66
74441;BME280;62870;54.692;25.284;2022-10-16T00:14:15;1030.3;;;14;66
74441;BME280;62870;54.692;25.284;2022-10-16T00:19:03;1030.3;;;14;66.3
74441;BME280;62870;54.692;25.284;2022-10-16T00:24:13;1030.2;;;13.9;66.4
74441;BME280;62870;54.692;25.284;2022-10-16T00:29:15;1030.2;;;13.9;66.6
74441;BME280;62870;54.692;25.284;2022-10-16T00:34:25;1030.2;;;14;66.4
74441;BME280;62870;54.692;25.284;2022-10-16T00:39:01;1030.2;;;13.9;66.4
74441;BME280;62870;54.692;25.284;2022-10-16T00:43:40;1030.3;;;14;66.3
74441;BME280;62870;54.692;25.284;2022-10-16T00:49:23;1030.2;;;13.9;66.5
74441;BME280;62870;54.692;25.284;2022-10-16T00:54:14;1030.3;;;13.9;66.9
74441;BME280;62870;54.692;25.284;2022-10-16T00:59:01;1030.3;;;13.9;66.9
74441;BME280;62870;54.692;25.284;2022-10-16T01:04:13;1030.4;;;14;66.8
74441;BME280;62870;54.692;25.284;2022-10-16T01:09:15;1030.4;;;14;66.6
74441;BME280;62870;54.692;25.284;2022-10-16T01:13:41;1030.5;;;14;66.6
74441;BME280;62870;54.692;25.284;2022-10-16T01:19:14;1030.5;;;13.9;66.7
74441;BME280;62870;54.692;25.284;2022-10-16T01:24:27;1030.5;;;13.9;67
74441;BME280;62870;54.692;25.284;2022-10-16T01:28:41;1030.5;;;13.9;67.1
74441;BME280;62870;54.692;25.284;2022-10-16T01:34:00;1030.6;;;13.9;67.1
74441;BME280;62870;54.692;25.284;2022-10-16T01:39:24;1030.7;;;14;66.8
74441;BME280;62870;54.692;25.284;2022-10-16T01:44:26;1030.7;;;14;66.7
74441;BME280;62870;54.692;25.284;2022-10-16T01:49:26;1030.7;;;13.9;66.9
74441;BME280;62870;54.692;25.284;2022-10-16T01:53:39;1030.7;;;13.8;67.3
74441;BME280;62870;54.692;25.284;2022-10-16T01:59:24;1030.8;;;13.8;67.5
74441;BME280;62870;54.692;25.284;2022-10-16T02:04:27;1030.9;;;13.8;67.7
74441;BME280;62870;54.692;25.284;2022-10-16T02:08:59;1030.8;;;13.8;67.3
74441;BME280;62870;54.692;25.284;2022-10-16T02:13:41;1030.9;;;13.8;67.5
74441;BME280;62870;54.692;25.284;2022-10-16T02:19:01;1030.9;;;13.8;67.5
74441;BME280;62870;54.692;25.284;2022-10-16T02:23:53;1030.9;;;13.8;67.9
74441;BME280;62870;54.692;25.284;2022-10-16T02:29:02;1030.8;;;13.8;68.4
74441;BME280;62870;54.692;25.284;2022-10-16T02:34:02;1030.8;;;13.7;68.5
74441;BME280;62870;54.692;25.284;2022-10-16T02:39:23;1030.8;;;13.7;68.7
74441;BME280;62870;54.692;25.284;2022-10-16T02:44:13;1030.7;;;13.6;68.7
74441;BME280;62870;54.692;25.284;2022-10-16T02:49:27;1030.7;;;13.6;69
74441;BME280;62870;54.692;25.284;2022-10-16T02:54:15;1030.8;;;13.6;69.2
74441;BME280;62870;54.692;25.284;2022-10-16T02:59:15;1030.9;;;13.6;69.4
74441;BME280;62870;54.692;25.284;2022-10-16T03:04:29;1030.9;;;13.6;69.4
74441;BME280;62870;54.692;25.284;2022-10-16T03:08:41;1030.9;;;13.5;69.2
74441;BME280;62870;54.692;25.284;2022-10-16T03:13:41;1030.9;;;13.5;69.2
74441;BME280;62870;54.692;25.284;2022-10-16T03:18:49;1031;;;13.4;69.2
74441;BME280;62870;54.692;25.284;2022-10-16T03:24:27;1030.9;;;13.3;69.9
74441;BME280;62870;54.692;25.284;2022-10-16T03:29:17;1030.9;;;13.3;70.3
74441;BME280;62870;54.692;25.284;2022-10-16T03:34:17;1031;;;13.4;70.4
74441;BME280;62870;54.692;25.284;2022-10-16T03:39:15;1031;;;13.4;69.9
74441;BME280;62870;54.692;25.284;2022-10-16T03:44:17;1031;;;13.3;70
74441;BME280;62870;54.692;25.284;2022-10-16T03:49:05;1031;;;13.3;69.9
74441;BME280;62870;54.692;25.284;2022-10-16T03:54:17;1030.9;;;13.1;70.5
74441;BME280;62870;54.692;25.284;2022-10-16T03:58:51;1030.9;;;13.1;70.8
74441;BME280;62870;54.692;25.284;2022-10-16T04:04:05;1031;;;13.1;70.8
74441;BME280;62870;54.692;25.284;2022-10-16T04:09:03;1031;;;13;70.9
74441;BME280;62870;54.692;25.284;2022-10-16T04:14:27;1031;;;13;70.7
74441;BME280;62870;54.692;25.284;2022-10-16T04:19:17;1031;;;12.9;70.7
74441;BME280;62870;54.692;25.284;2022-10-16T04:24:08;1031;;;12.9;71
74441;BME280;62870;54.692;25.284;2022-10-16T04:29:07;1031;;;12.8;71.2
74441;BME280;62870;54.692;25.284;2022-10-16T04:34:19;1031;;;12.8;71.3
74441;BME280;62870;54.692;25.284;2022-10-16T04:39:31;1031;;;12.8;71.5
74441;BME280;62870;54.692;25.284;2022-10-16T04:44:05;1031.1;;;12.8;71.3
74441;BME280;62870;54.692;25.284;2022-10-16T04:48:41;1031.2;;;12.8;71
74441;BME280;62870;54.692;25.284;2022-10-16T04:53:55;1031.1;;;12.9;70.9
74441;BME280;62870;54.692;25.284;2022-10-16T04:59:20;1031.1;;;12.8;71.1
74441;BME280;62870;54.692;25.284;2022-10-16T05:03:51;1031.1;;;12.8;71.3
74441;BME280;62870;54.692;25.284;2022-10-16T05:08:41;1031.1;;;12.9;71.3
74441;BME280;62870;54.692;25.284;2022-10-16T05:14:19;1031.1;;;12.9;70.9
74441;BME280;62870;54.692;25.284;2022-10-16T05:19:31;1031.1;;;13;70.6
74441;BME280;62870;54.692;25.284;2022-10-16T05:24:07;1031.1;;;13;70.9
74441;BME280;62870;54.692;25.284;2022-10-16T05:29:29;1031.1;;;12.9;70.9
74441;BME280;62870;54.692;25.284;2022-10-16T05:34:31;1031.1;;;12.9;71.1
74441;BME280;62870;54.692;25.284;2022-10-16T05:38:41;1031.2;;;12.9;70.9
74441;BME280;62870;54.692;25.284;2022-10-16T05:43:41;1031.2;;;13.1;70.6
74441;BME280;62870;54.692;25.284;2022-10-16T05:48:41;1031.2;;;13.1;70.2
74441;BME280;62870;54.692;25.284;2022-10-16T05:54:29;1031.3;;;13.1;70.2
74441;BME280;62870;54.692;25.284;2022-10-16T05:59:19;1031.3;;;13;70.3
74441;BME280;62870;54.692;25.284;2022-10-16T06:04:19;1031.4;;;13;70.5
74441;BME280;62870;54.692;25.284;2022-10-16T06:09:15;1031.4;;;13;70.4
74441;BME280;62870;54.692;25.284;2022-10-16T06:14:19;1031.4;;;13;70.2
74441;BME280;62870;54.692;25.284;2022-10-16T06:19:19;1031.5;;;13.2;69.8
74441;BME280;62870;54.692;25.284;2022-10-16T06:24:17;1031.6;;;13.5;68.6
74441;BME280;62870;54.692;25.284;2022-10-16T06:28:53;1031.7;;;13.6;68
74441;BME280;62870;54.692;25.284;2022-10-16T06:33:41;1031.6;;;14.5;65.2
74441;BME280;62870;54.692;25.284;2022-10-16T06:38:51;1031.7;;;15.5;62
74441;BME280;62870;54.692;25.284;2022-10-16T06:44:29;1031.8;;;16.1;60.5
74441;BME280;62870;54.692;25.284;2022-10-16T06:49:17;1031.8;;;16.8;59.3
74441;BME280;62870;54.692;25.284;2022-10-16T06:54:03;1031.9;;;17.1;58.2
74441;BME280;62870;54.692;25.284;2022-10-16T06:58:52;1032;;;16.7;57.9
74441;BME280;62870;54.692;25.284;2022-10-16T07:04:09;1032.1;;;15.9;59.6
74441;BME280;62870;54.692;25.284;2022-10-16T07:09:31;1032;;;15.4;61.3
74441;BME280;62870;54.692;25.284;2022-10-16T07:13:55;1032.1;;;15.1;62.5
74441;BME280;62870;54.692;25.284;2022-10-16T07:19:07;1032.2;;;15.3;62
74441;BME280;62870;54.692;25.284;2022-10-16T07:23:56;1032.2;;;15.3;62
74441;BME280;62870;54.692;25.284;2022-10-16T07:28:55;1032.2;;;15;62.6
74441;BME280;62870;54.692;25.284;2022-10-16T07:34:05;1032.2;;;14.8;63.2
74441;BME280;62870;54.692;25.284;2022-10-16T07:39:05;1032.2;;;14.6;64.1
74441;BME280;62870;54.692;25.284;2022-10-16T07:44:29;1032.3;;;14.5;64.5
74441;BME280;62870;54.692;25.284;2022-10-16T07:49:17;1032.3;;;14.6;64.5
74441;BME280;62870;54.692;25.284;2022-10-16T07:54:07;1032.3;;;14.6;64.1
74441;BME280;62870;54.692;25.284;2022-10-16T07:59:29;1032.3;;;14.6;64.5
74441;BME280;62870;54.692;25.284;2022-10-16T08:04:19;1032.3;;;14.6;64.7
74441;BME280;62870;54.692;25.284;2022-10-16T08:09:29;1032.4;;;14.6;64.8
74441;BME280;62870;54.692;25.284;2022-10-16T08:14:07;1032.4;;;14.8;64.5
74441;BME280;62870;54.692;25.284;2022-10-16T08:18:41;1032.4;;;14.8;64.3
74441;BME280;62870;54.692;25.284;2022-10-16T08:24:31;1032.4;;;14.9;64.3
74441;BME280;62870;54.692;25.284;2022-10-16T08:29:34;1032.4;;;14.9;64.2
74441;BME280;62870;54.692;25.284;2022-10-16T08:33:42;1032.4;;;14.9;64.8
74441;BME280;62870;54.692;25.284;2022-10-16T08:39:17;1032.4;;;14.9;64.3
74441;BME280;62870;54.692;25.284;2022-10-16T08:44:36;1032.4;;;15;64
74441;BME280;62870;54.692;25.284;2022-10-16T08:49:17;1032.4;;;15;63.9
74441;BME280;62870;54.692;25.284;2022-10-16T08:54:27;1032.4;;;15.1;63.5
74441;BME280;62870;54.692;25.284;2022-10-16T08:59:31;1032.4;;;15;63.3
74441;BME280;62870;54.692;25.284;2022-10-16T09:04:11;1032.4;;;14.9;63.5
74441;BME280;62870;54.692;25.284;2022-10-16T09:08:44;1032.4;;;14.8;63.5
74441;BME280;62870;54.692;25.284;2022-10-16T09:14:35;1032.4;;;15;63.2
74441;BME280;62870;54.692;25.284;2022-10-16T09:19:33;1032.5;;;15.1;62.7
74441;BME280;62870;54.692;25.284;2022-10-16T09:24:31;1032.5;;;15.4;61.9
74441;BME280;62870;54.692;25.284;2022-10-16T09:28:51;1032.6;;;15.5;61.1
74441;BME280;62870;54.692;25.284;2022-10-16T09:34:32;1032.5;;;15.5;61
74441;BME280;62870;54.692;25.284;2022-10-16T09:39:43;1032.4;;;15.5;60.6
74441;BME280;62870;54.692;25.284;2022-10-16T09:44:06;1032.5;;;15.6;60.8
74441;BME280;62870;54.692;25.284;2022-10-16T09:49:20;1032.5;;;15.6;60.9
74441;BME280;62870;54.692;25.284;2022-10-16T09:53:42;1032.5;;;15.6;60.8
74441;BME280;62870;54.692;25.284;2022-10-16T09:58:42;1032.5;;;15.7;60.6
74441;BME280;62870;54.692;25.284;2022-10-16T10:04:20;1032.5;;;15.7;60.3
74441;BME280;62870;54.692;25.284;2022-10-16T10:09:15;1032.4;;;15.5;60.7
74441;BME280;62870;54.692;25.284;2022-10-16T10:14:34;1032.4;;;15.5;61.2
74441;BME280;62870;54.692;25.284;2022-10-16T10:19:20;1032.4;;;15.6;61.1
74441;BME280;62870;54.692;25.284;2022-10-16T10:23:55;1032.3;;;15.5;61.2
74441;BME280;62870;54.692;25.284;2022-10-16T10:29:38;1032.4;;;15.4;61.1
74441;BME280;62870;54.692;25.284;2022-10-16T10:34:23;1032.3;;;15.3;61.3
74441;BME280;62870;54.692;25.284;2022-10-16T10:39:32;1032.2;;;15.2;61.5
74441;BME280;62870;54.692;25.284;2022-10-16T10:44:10;1032.2;;;15.2;61.8
74441;BME280;62870;54.692;25.284;2022-10-16T10:49:03;1032.1;;;15.3;61.7
74441;BME280;62870;54.692;25.284;2022-10-16T10:54:35;1032.1;;;15.4;61.5
74441;BME280;62870;54.692;25.284;2022-10-16T10:59:25;1032.2;;;15.4;61.3
74441;BME280;62870;54.692;25.284;2022-10-16T11:03:59;1032.1;;;15.5;61
74441;BME280;62870;54.692;25.284;2022-10-16T11:09:10;1032.1;;;15.6;60.9
74441;BME280;62870;54.692;25.284;2022-10-16T11:14:18;1032.2;;;15.6;60.8
74441;BME280;62870;54.692;25.284;2022-10-16T11:18:55;1032.2;;;15.7;60.8
74441;BME280;62870;54.692;25.284;2022-10-16T11:24:35;1032.2;;;15.8;60.7
74441;BME280;62870;54.692;25.284;2022-10-16T11:29:34;1032.1;;;15.8;60.4
74441;BME280;62870;54.692;25.284;2022-10-16T11:33:42;1032.3;;;15.8;60.2
74441;BME280;62870;54.692;25.284;2022-10-16T11:38:43;1032.3;;;15.9;60
74441;BME280;62870;54.692;25.284;2022-10-16T11:44:35;1032.3;;;15.9;59.8
74441;BME280;62870;54.692;25.284;2022-10-16T11:49:32;1032.3;;;16;59.6
74441;BME280;62870;54.692;25.284;2022-10-16T11:54:35;1032.3;;;16.2;59.4
74441;BME280;62870;54.692;25.284;2022-10-16T11:59:08;1032.3;;;16.5;58.8
74441;BME280;62870;54.692;25.284;2022-10-16T12:03:42;1032.2;;;16.5;58.2
74441;BME280;62870;54.692;25.284;2022-10-16T12:09:19;1032.1;;;16.4;58.4
74441;BME280;62870;54.692;25.284;2022-10-16T12:14:37;1032;;;16.5;58.3
74441;BME280;62870;54.692;25.284;2022-10-16T12:19:11;1032.1;;;16.7;57.9
74441;BME280;62870;54.692;25.284;2022-10-16T12:23:46;1032;;;17.2;56.9
74441;BME280;62870;54.692;25.284;2022-10-16T12:28:42;1032.1;;;17.3;56.4
74441;BME280;62870;54.692;25.284;2022-10-16T12:33:57;1032;;;17;56.6
74441;BME280;62870;54.692;25.284;2022-10-16T12:39:16;1032;;;16.9;57.1
74441;BME280;62870;54.692;25.284;2022-10-16T12:44:20;1032;;;16.9;57.2
74441;BME280;62870;54.692;25.284;2022-10-16T12:49:19;1032.1;;;17.1;56.8
74441;BME280;62870;54.692;25.284;2022-10-16T12:54:34;1032;;;17.6;55.9
74441;BME280;62870;54.692;25.284;2022-10-16T12:59:18;1032;;;18.3;54.3
74441;BME280;62870;54.692;25.284;2022-10-16T13:04:36;1032;;;19.3;50.9
74441;BME280;62870;54.692;25.284;2022-10-16T13:09:39;1032.1;;;19.8;48.9
74441;BME280;62870;54.692;25.284;2022-10-16T13:14:01;1032;;;18.9;51.2
74441;BME280;62870;54.692;25.284;2022-10-16T13:18:59;1032.1;;;18.6;52.5
74441;BME280;62870;54.692;25.284;2022-10-16T13:23:43;1032.1;;;18.8;52.3
74441;BME280;62870;54.692;25.284;2022-10-16T13:29:32;1032;;;19.5;51
74441;BME280;62870;54.692;25.284;2022-10-16T13:34:00;1032.1;;;19.8;49.5
74441;BME280;62870;54.692;25.284;2022-10-16T13:39:22;1032.1;;;20.5;47.7
74441;BME280;62870;54.692;25.284;2022-10-16T13:43:44;1032;;;20.7;47.2
74441;BME280;62870;54.692;25.284;2022-10-16T13:49:22;1032.1;;;19.9;49.4
74441;BME280;62870;54.692;25.284;2022-10-16T13:54:10;1032.1;;;19.2;51.3
74441;BME280;62870;54.692;25.284;2022-10-16T13:59:22;1032.2;;;18.6;52.8
74441;BME280;62870;54.692;25.284;2022-10-16T14:03:59;1032.1;;;18.1;54
74441;BME280;62870;54.692;25.284;2022-10-16T14:08:56;1032.2;;;17.6;56.1
74441;BME280;62870;54.692;25.284;2022-10-16T14:13:58;1032.2;;;17.3;57.3
74441;BME280;62870;54.692;25.284;2022-10-16T14:19:34;1032.2;;;17.2;57.6
74441;BME280;62870;54.692;25.284;2022-10-16T14:24:10;1032.3;;;17.1;57.8
74441;BME280;62870;54.692;25.284;2022-10-16T14:29:09;1032.4;;;17;58.1
74441;BME280;62870;54.692;25.284;2022-10-16T14:33:58;1032.4;;;16.9;58.9
74441;BME280;62870;54.692;25.284;2022-10-16T14:39:22;1032.4;;;16.8;59.6
74441;BME280;62870;54.692;25.284;2022-10-16T14:44:34;1032.5;;;16.8;59.9
74441;BME280;62870;54.692;25.284;2022-10-16T14:49:13;1032.4;;;16.8;60
74441;BME280;62870;54.692;25.284;2022-10-16T14:53:52;1032.4;;;16.7;59.9
74441;BME280;62870;54.692;25.284;2022-10-16T14:58:56;1032.3;;;16.7;59.9
74441;BME280;62870;54.692;25.284;2022-10-16T15:03:42;1032.3;;;16.6;60.1
74441;BME280;62870;54.692;25.284;2022-10-16T15:09:08;1032.3;;;16.6;60.7
74441;BME280;62870;54.692;25.284;2022-10-16T15:14:08;1032.4;;;16.5;61.1
74441;BME280;62870;54.692;25.284;2022-10-16T15:19:22;1032.3;;;16.6;60.9
74441;BME280;62870;54.692;25.284;2022-10-16T15:24:36;1032.3;;;16.6;60.8
74441;BME280;62870;54.692;25.284;2022-10-16T15:28:42;1032.2;;;16.5;60.7
74441;BME280;62870;54.692;25.284;2022-10-16T15:34:32;1032.2;;;16.5;60.9
74441;BME280;62870;54.692;25.284;2022-10-16T15:39:34;1032.2;;;16.5;61.2
74441;BME280;62870;54.692;25.284;2022-10-16T15:44:08;1032.2;;;16.4;61.4
74441;BME280;62870;54.692;25.284;2022-10-16T15:48:42;1032.2;;;16.4;61.4
74441;BME280;62870;54.692;25.284;2022-10-16T15:53:42;1032.2;;;16.4;61.2
74441;BME280;62870;54.692;25.284;2022-10-16T15:59:20;1032.3;;;16.4;61.2
74441;BME280;62870;54.692;25.284;2022-10-16T16:04:22;1032.3;;;16.4;61.3
74441;BME280;62870;54.692;25.284;2022-10-16T16:09:22;1032.3;;;16.4;61.6
74441;BME280;62870;54.692;25.284;2022-10-16T16:14:20;1032.3;;;16.4;61.6
74441;BME280;62870;54.692;25.284;2022-10-16T16:19:20;1032.4;;;16.4;61.5
74441;BME280;62870;54.692;25.284;2022-10-16T16:23:42;1032.3;;;16.5;61.4
74441;BME280;62870;54.692;25.284;2022-10-16T16:29:18;1032.4;;;16.5;61.3
74441;BME280;62870;54.692;25.284;2022-10-16T16:33:42;1032.4;;;16.4;61.3
74441;BME280;62870;54.692;25.284;2022-10-16T16:38:58;1032.5;;;16.4;61.6
74441;BME280;62870;54.692;25.284;2022-10-16T16:44:00;1032.4;;;16.4;62
74441;BME280;62870;54.692;25.284;2022-10-16T16:49:34;1032.4;;;16.4;62.4
74441;BME280;62870;54.692;25.284;2022-10-16T16:54:32;1032.4;;;16.4;62
74441;BME280;62870;54.692;25.284;2022-10-16T16:59:32;1032.5;;;16.4;62.1
74441;BME280;62870;54.692;25.284;2022-10-16T17:04:06;1032.6;;;16.4;62.3
74441;BME280;62870;54.692;25.284;2022-10-16T17:09:31;1032.6;;;16.3;63.1
74441;BME280;62870;54.692;25.284;2022-10-16T17:14:34;1032.8;;;16.2;63.8
74441;BME280;62870;54.692;25.284;2022-10-16T17:19:04;1032.9;;;16.2;63.9
74441;BME280;62870;54.692;25.284;2022-10-16T17:24:04;1032.9;;;16.1;63.8
74441;BME280;62870;54.692;25.284;2022-10-16T17:28:42;1032.9;;;16.1;63.8
74441;BME280;62870;54.692;25.284;2022-10-16T17:33:52;1032.9;;;16.1;63.9
74441;BME280;62870;54.692;25.284;2022-10-16T17:39:09;1032.9;;;16;64.4
74441;BME280;62870;54.692;25.284;2022-10-16T17:43:52;1032.9;;;16;64.7
74441;BME280;62870;54.692;25.284;2022-10-16T17:49:30;1033;;;16;65.5
74441;BME280;62870;54.692;25.284;2022-10-16T17:54:20;1033;;;16;65.2
74441;BME280;62870;54.692;25.284;2022-10-16T17:59:08;1033;;;16;65.6
74441;BME280;62870;54.692;25.284;2022-10-16T18:04:32;1033.2;;;15.9;66
74441;BME280;62870;54.692;25.284;2022-10-16T18:09:16;1033.2;;;15.8;67.1
74441;BME280;62870;54.692;25.284;2022-10-16T18:14:30;1033.1;;;15.7;67.4
74441;BME280;62870;54.692;25.284;2022-10-16T18:18:42;1033.1;;;15.7;67.8
74441;BME280;62870;54.692;25.284;2022-10-16T18:24:08;1033.1;;;15.7;67.5
74441;BME280;62870;54.692;25.284;2022-10-16T18:29:30;1033.1;;;15.7;67.3
74441;BME280;62870;54.692;25.284;2022-10-16T18:34:20;1033.2;;;15.7;67.2
74441;BME280;62870;54.692;25.284;2022-10-16T18:38:54;1033.2;;;15.7;67.4
74441;BME280;62870;54.692;25.284;2022-10-16T18:44:10;1033.2;;;15.7;67.3
74441;BME280;62870;54.692;25.284;2022-10-16T18:49:18;1033.1;;;15.7;67.3
74441;BME280;62870;54.692;25.284;2022-10-16T18:53:51;1033;;;15.7;67
74441;BME280;62870;54.692;25.284;2022-10-16T18:59:20;1033;;;15.7;67.1
74441;BME280;62870;54.692;25.284;2022-10-16T19:04:32;1033.1;;;15.6;67.2
74441;BME280;62870;54.692;25.284;2022-10-16T19:08:42;1033.2;;;15.6;67.8
74441;BME280;62870;54.692;25.284;2022-10-16T19:13:56;1033.2;;;15.6;67.9
74441;BME280;62870;54.692;25.284;2022-10-16T19:19:30;1033.2;;;15.6;68.2
74441;BME280;62870;54.692;25.284;2022-10-16T19:24:30;1033.2;;;15.6;68.2
74441;BME280;62870;54.692;25.284;2022-10-16T19:29:32;1033.2;;;15.7;67.9
74441;BME280;62870;54.692;25.284;2022-10-16T19:34:08;1033.2;;;15.7;67.8
74441;BME280;62870;54.692;25.284;2022-10-16T19:39:28;1033.1;;;15.6;67.9
74441;BME280;62870;54.692;25.284;2022-10-16T19:44:14;1033.1;;;15.5;68.3
74441;BME280;62870;54.692;25.284;2022-10-16T19:49:04;1033.2;;;15.6;68
74441;BME280;62870;54.692;25.284;2022-10-16T19:54:07;1033.2;;;15.6;67.6
74441;BME280;62870;54.692;25.284;2022-10-16T19:58:53;1033.3;;;15.7;67.3
74441;BME280;62870;54.692;25.284;2022-10-16T20:03:42;1033.4;;;15.7;67.1
74441;BME280;62870;54.692;25.284;2022-10-16T20:09:06;1033.4;;;15.7;67.1
74441;BME280;62870;54.692;25.284;2022-10-16T20:14:08;1033.5;;;15.7;67.3
74441;BME280;62870;54.692;25.284;2022-10-16T20:19:30;1033.5;;;15.7;67.2
74441;BME280;62870;54.692;25.284;2022-10-16T20:24:16;1033.6;;;15.8;67.1
74441;BME280;62870;54.692;25.284;2022-10-16T20:29:06;1033.6;;;15.9;66.8
74441;BME280;62870;54.692;25.284;2022-10-16T20:34:32;1033.6;;;16;66.6
74441;BME280;62870;54.692;25.284;2022-10-16T20:39:20;1033.6;;;16;66.4
74441;BME280;62870;54.692;25.284;2022-10-16T20:44:32;1033.5;;;15.9;66.6
74441;BME280;62870;54.692;25.284;2022-10-16T20:48:42;1033.5;;;15.9;66.8
74441;BME280;62870;54.692;25.284;2022-10-16T20:53:59;1033.5;;;15.9;66.8
74441;BME280;62870;54.692;25.284;2022-10-16T20:59:32;1033.5;;;15.9;66.7
74441;BME280;62870;54.692;25.284;2022-10-16T21:04:20;1033.6;;;16;66.8
74441;BME280;62870;54.692;25.284;2022-10-16T21:09:08;1033.6;;;16;66.7
74441;BME280;62870;54.692;25.284;2022-10-16T21:14:22;1033.6;;;16;66.8
74441;BME280;62870;54.692;25.284;2022-10-16T21:19:22;1033.6;;;16;66.9
74441;BME280;62870;54.692;25.284;2022-10-16T21:24:18;1033.7;;;16.1;66.9
74441;BME280;62870;54.692;25.284;2022-10-16T21:29:06;1033.8;;;16.1;66.8
74441;BME280;62870;54.692;25.284;2022-10-16T21:34:18;1033.8;;;16.2;66.7
74441;BME280;62870;54.692;25.284;2022-10-16T21:38:42;1033.9;;;16.2;66.7
74441;BME280;62870;54.692;25.284;2022-10-16T21:43:56;1034;;;16.2;67
74441;BME280;62870;54.692;25.284;2022-10-16T21:48:42;1034;;;16.2;67.3
74441;BME280;62870;54.692;25.284;2022-10-16T21:54:32;1034;;;16.1;67.6
74441;BME280;62870;54.692;25.284;2022-10-16T21:58:44;1034;;;16.2;67.6
74441;BME280;62870;54.692;25.284;2022-10-16T22:04:20;1034.1;;;16.1;67.6
74441;BME280;62870;54.692;25.284;2022-10-16T22:09:06;1034.1;;;16.1;67.7
74441;BME280;62870;54.692;25.284;2022-10-16T22:13:54;1034.2;;;16;68.4
74441;BME280;62870;54.692;25.284;2022-10-16T22:19:34;1034.2;;;16;68.9
74441;BME280;62870;54.692;25.284;2022-10-16T22:24:20;1034.2;;;16;69.2
74441;BME280;62870;54.692;25.284;2022-10-16T22:29:08;1034.2;;;16;69.4
74441;BME280;62870;54.692;25.284;2022-10-16T22:33:56;1034.3;;;16.1;69.5
74441;BME280;62870;54.692;25.284;2022-10-16T22:39:03;1034.3;;;16.1;69.3
74441;BME280;62870;54.692;25.284;2022-10-16T22:44:09;1034.3;;;16.1;69.9
74441;BME280;62870;54.692;25.284;2022-10-16T22:49:06;1034.2;;;16;70.5
74441;BME280;62870;54.692;25.284;2022-10-16T22:54:18;1034.2;;;16;71.1
74441;BME280;62870;54.692;25.284;2022-10-16T22:59:30;1034.1;;;16;71.5
74441;BME280;62870;54.692;25.284;2022-10-16T23:03:40;1034.2;;;16;71.5
74441;BME280;62870;54.692;25.284;2022-10-16T23:09:30;1034.2;;;16;71.4
74441;BME280;62870;54.692;25.284;2022-10-16T23:14:30;1034.3;;;15.9;71.6
74441;BME280;62870;54.692;25.284;2022-10-16T23:19:16;1034.3;;;15.9;72.2
74441;BME280;62870;54.692;25.284;2022-10-16T23:23:48;1034.4;;;15.8;72.7
74441;BME280;62870;54.692;25.284;2022-10-16T23:28:38;1034.6;;;15.7;73.2
74441;BME280;62870;54.692;25.284;2022-10-16T23:34:22;1034.6;;;15.8;73
74441;BME280;62870;54.692;25.284;2022-10-16T23:39:16;1034.7;;;15.8;72.7
74441;BME280;62870;54.692;25.284;2022-10-16T23:44:14;1034.7;;;15.8;72.8
74441;BME280;62870;54.692;25.284;2022-10-16T23:49:16;1034.8;;;15.8;73.1
74441;BME280;62870;54.692;25.284;2022-10-16T23:54:14;1034.9;;;15.8;73
74441;BME280;62870;54.692;25.284;2022-10-16T23:58:50;1035;;;15.8;73.2
